createdAt,value
2022-09-04T00:00:03.815Z,86.97
2022-09-04T00:02:42.267Z,86.85
2022-09-04T00:05:35.394Z,85.33
2022-09-04T00:08:15.020Z,85.67
2022-09-04T00:10:55.710Z,86.08
2022-09-04T00:13:36.383Z,85.24
2022-09-04T00:16:12.476Z,82.60
2022-09-04T00:19:36.345Z,83.77
2022-09-04T00:22:24.004Z,84.15
2022-09-04T00:25:33.423Z,85.25
2022-09-04T00:28:09.164Z,86.22
2022-09-04T00:30:43.562Z,86.31
2022-09-04T00:33:17.736Z,86.12
2022-09-04T00:35:58.577Z,86.39
2022-09-04T00:38:29.100Z,86.49
2022-09-04T00:41:13.253Z,87.14
2022-09-04T00:43:46.696Z,85.98
2022-09-04T00:46:39.021Z,85.26
2022-09-04T00:49:51.122Z,84.86
2022-09-04T00:52:38.046Z,84.66
2022-09-04T00:55:27.030Z,83.54
2022-09-04T00:58:16.446Z,83.98
2022-09-04T01:00:47.443Z,84.05
2022-09-04T01:03:14.972Z,84.32
2022-09-04T01:06:04.040Z,84.25
2022-09-04T01:08:56.574Z,84.58
2022-09-04T01:11:57.458Z,84.60
2022-09-04T01:14:40.243Z,85.06
2022-09-04T01:17:37.312Z,84.98
2022-09-04T01:20:20.328Z,85.77
2022-09-04T01:23:06.749Z,85.10
2022-09-04T01:25:52.347Z,85.14
2022-09-04T01:28:50.672Z,84.65
2022-09-04T01:31:21.122Z,83.77
2022-09-04T01:34:13.371Z,84.10
2022-09-04T01:36:56.216Z,84.74
2022-09-04T01:39:30.465Z,85.26
2022-09-04T01:42:08.743Z,86.14
2022-09-04T01:44:37.212Z,86.46
2022-09-04T01:47:16.738Z,86.37
2022-09-04T01:49:57.278Z,85.90
2022-09-04T01:52:55.483Z,86.05
2022-09-04T01:55:53.124Z,87.04
2022-09-04T01:58:47.066Z,86.97
2022-09-04T02:01:32.541Z,86.73
2022-09-04T02:04:32.888Z,86.73
2022-09-04T02:07:08.651Z,86.35
2022-09-04T02:09:48.404Z,85.59
2022-09-04T02:12:49.195Z,85.33
2022-09-04T02:15:27.020Z,85.94
2022-09-04T02:18:24.744Z,85.24
2022-09-04T02:21:18.303Z,85.39
2022-09-04T02:23:56.635Z,85.53
2022-09-04T02:26:46.484Z,85.37
2022-09-04T02:29:28.956Z,85.25
2022-09-04T02:32:00.604Z,84.80
2022-09-04T02:34:42.951Z,85.11
2022-09-04T02:37:52.290Z,85.38
2022-09-04T02:40:40.532Z,85.90
2022-09-04T02:43:21.090Z,86.49
2022-09-04T02:46:09.700Z,86.32
2022-09-04T02:49:07.751Z,86.60
2022-09-04T02:52:17.471Z,87.21
2022-09-04T02:55:18.715Z,87.02
2022-09-04T02:57:56.647Z,87.18
2022-09-04T03:00:44.077Z,86.79
2022-09-04T03:03:18.714Z,87.26
2022-09-04T03:05:51.329Z,86.66
2022-09-04T03:08:29.882Z,86.87
2022-09-04T03:11:23.565Z,86.47
2022-09-04T03:14:02.379Z,86.13
2022-09-04T03:16:40.307Z,85.82
2022-09-04T03:19:36.439Z,85.75
2022-09-04T03:22:13.429Z,85.11
2022-09-04T03:24:50.098Z,85.49
2022-09-04T03:27:19.094Z,84.16
2022-09-04T03:29:51.466Z,83.25
2022-09-04T03:32:19.005Z,83.10
2022-09-04T03:35:05.179Z,83.40
2022-09-04T03:37:41.485Z,83.67
2022-09-04T03:40:19.822Z,83.35
2022-09-04T03:43:19.666Z,83.56
2022-09-04T03:46:14.845Z,83.26
2022-09-04T03:48:54.227Z,83.01
2022-09-04T03:51:35.312Z,84.69
2022-09-04T03:54:31.715Z,83.99
2022-09-04T03:57:19.081Z,84.71
2022-09-04T04:00:07.231Z,85.05
2022-09-04T04:03:17.573Z,85.58
2022-09-04T04:06:08.758Z,84.80
2022-09-04T04:09:02.084Z,84.81
2022-09-04T04:11:41.344Z,84.20
2022-09-04T04:14:37.571Z,84.78
2022-09-04T04:17:20.709Z,85.28
2022-09-04T04:19:48.113Z,85.79
2022-09-04T04:22:45.562Z,84.93
2022-09-04T04:25:24.495Z,85.07
2022-09-04T04:28:17.276Z,86.12
2022-09-04T04:30:47.656Z,85.68
2022-09-04T04:33:24.021Z,86.66
2022-09-04T04:36:06.701Z,87.79
2022-09-04T04:38:39.708Z,87.68
2022-09-04T04:41:55.401Z,87.96
2022-09-04T04:44:51.024Z,85.92
2022-09-04T04:47:59.491Z,85.85
2022-09-04T04:50:46.156Z,86.53
2022-09-04T04:53:30.593Z,86.46
2022-09-04T04:56:15.653Z,86.21
2022-09-04T04:59:09.073Z,85.51
2022-09-04T05:02:04.786Z,86.02
2022-09-04T05:04:46.141Z,85.81
2022-09-04T05:07:34.677Z,83.66
2022-09-04T05:10:11.084Z,83.51
2022-09-04T05:13:01.567Z,83.23
2022-09-04T05:15:28.930Z,82.63
2022-09-04T05:18:02.043Z,82.75
2022-09-04T05:20:50.281Z,82.74
2022-09-04T05:23:28.701Z,85.02
2022-09-04T05:26:33.167Z,85.32
2022-09-04T05:29:03.161Z,83.61
2022-09-04T05:32:01.503Z,81.92
2022-09-04T05:35:04.369Z,80.32
2022-09-04T05:37:45.197Z,81.00
2022-09-04T05:40:15.672Z,80.26
2022-09-04T05:43:11.395Z,79.08
2022-09-04T05:45:54.026Z,79.04
2022-09-04T05:49:09.011Z,80.02
2022-09-04T05:52:07.464Z,80.89
2022-09-04T05:55:01.132Z,78.49
2022-09-04T05:57:56.495Z,80.16
2022-09-04T06:00:25.746Z,80.57
2022-09-04T06:02:59.196Z,80.83
2022-09-04T06:05:33.348Z,79.18
2022-09-04T06:08:27.830Z,80.82
2022-09-04T06:11:23.744Z,80.49
2022-09-04T06:14:17.436Z,81.21
2022-09-04T06:16:54.255Z,80.85
2022-09-04T06:20:00.381Z,82.25
2022-09-04T06:22:48.518Z,80.62
2022-09-04T06:25:41.537Z,80.39
2022-09-04T06:28:12.024Z,79.52
2022-09-04T06:31:04.552Z,79.23
2022-09-04T06:33:40.744Z,78.21
2022-09-04T06:36:32.471Z,75.18
2022-09-04T06:39:21.845Z,72.59
2022-09-04T06:41:52.097Z,70.05
2022-09-04T06:44:50.433Z,65.44
2022-09-04T06:47:34.841Z,60.50
2022-09-04T06:50:18.695Z,56.71
2022-09-04T06:53:03.503Z,55.32
2022-09-04T06:55:48.158Z,57.41
2022-09-04T06:58:57.977Z,60.42
2022-09-04T07:01:46.937Z,63.42
2022-09-04T07:04:28.386Z,64.99
2022-09-04T07:07:32.856Z,66.91
2022-09-04T07:10:10.574Z,67.29
2022-09-04T07:12:59.589Z,66.89
2022-09-04T07:15:48.361Z,66.88
2022-09-04T07:18:51.517Z,63.18
2022-09-04T07:21:49.576Z,59.36
2022-09-04T07:24:26.949Z,59.56
2022-09-04T07:27:36.004Z,58.10
2022-09-04T07:30:14.529Z,56.91
2022-09-04T07:33:04.624Z,58.57
2022-09-04T07:35:42.275Z,55.05
2022-09-04T07:38:21.953Z,54.24
2022-09-04T07:41:03.625Z,52.32
2022-09-04T07:44:04.751Z,50.85
2022-09-04T07:47:18.072Z,50.85
2022-09-04T07:49:54.095Z,52.80
2022-09-04T07:52:32.967Z,54.63
2022-09-04T07:55:17.256Z,53.67
2022-09-04T07:57:44.774Z,54.13
2022-09-04T08:00:18.084Z,53.87
2022-09-04T08:02:56.562Z,53.58
2022-09-04T08:05:34.355Z,50.99
2022-09-04T08:08:14.034Z,50.12
2022-09-04T08:11:11.970Z,50.41
2022-09-04T08:14:00.436Z,54.19
2022-09-04T08:16:36.834Z,52.75
2022-09-04T08:19:11.556Z,55.66
2022-09-04T08:21:45.024Z,58.23
2022-09-04T08:24:15.386Z,59.70
2022-09-04T08:27:16.015Z,61.35
2022-09-04T08:29:54.961Z,57.94
2022-09-04T08:32:53.356Z,51.93
2022-09-04T08:35:36.613Z,49.43
2022-09-04T08:38:43.331Z,48.87
2022-09-04T08:41:30.516Z,47.13
2022-09-04T08:44:38.831Z,45.46
2022-09-04T08:47:26.820Z,45.69
2022-09-04T08:50:09.676Z,44.70
2022-09-04T08:53:09.924Z,45.90
2022-09-04T08:55:56.076Z,43.58
2022-09-04T08:58:48.407Z,42.93
2022-09-04T09:01:41.665Z,43.84
2022-09-04T09:04:27.466Z,43.81
2022-09-04T09:07:26.238Z,44.01
2022-09-04T09:10:03.646Z,43.45
2022-09-04T09:12:42.902Z,42.54
2022-09-04T09:15:29.299Z,41.35
2022-09-04T09:18:36.160Z,39.69
2022-09-04T09:21:11.915Z,39.22
2022-09-04T09:24:14.499Z,39.15
2022-09-04T09:27:22.730Z,40.21
2022-09-04T09:30:05.403Z,41.32
2022-09-04T09:33:04.981Z,39.84
2022-09-04T09:36:16.203Z,39.43
2022-09-04T09:39:22.584Z,41.71
2022-09-04T09:42:07.229Z,38.75
2022-09-04T09:44:59.619Z,41.40
2022-09-04T09:47:51.502Z,40.73
2022-09-04T09:51:02.754Z,41.19
2022-09-04T09:53:47.547Z,42.86
2022-09-04T09:56:21.072Z,46.06
2022-09-04T09:59:20.027Z,48.33
2022-09-04T10:02:19.787Z,51.78
2022-09-04T10:05:24.174Z,53.60
2022-09-04T10:08:15.143Z,54.91
2022-09-04T10:11:18.617Z,54.42
2022-09-04T10:14:17.477Z,55.31
2022-09-04T10:17:16.091Z,51.25
2022-09-04T10:19:50.398Z,45.71
2022-09-04T10:22:33.884Z,47.12
2022-09-04T10:25:10.982Z,48.91
2022-09-04T10:27:46.672Z,50.96
2022-09-04T10:30:20.663Z,53.00
2022-09-04T10:33:11.394Z,53.18
2022-09-04T10:35:55.736Z,53.36
2022-09-04T10:38:34.392Z,53.94
2022-09-04T10:41:17.410Z,55.19
2022-09-04T10:44:03.689Z,53.29
2022-09-04T10:47:00.720Z,47.92
2022-09-04T10:49:41.756Z,42.93
2022-09-04T10:52:37.994Z,43.42
2022-09-04T10:55:31.565Z,45.00
2022-09-04T10:58:10.467Z,44.65
2022-09-04T11:00:50.184Z,43.60
2022-09-04T11:03:46.198Z,46.33
2022-09-04T11:06:49.397Z,44.72
2022-09-04T11:09:49.800Z,45.17
2022-09-04T11:12:35.891Z,46.31
2022-09-04T11:15:08.965Z,47.79
2022-09-04T11:18:01.194Z,46.91
2022-09-04T11:20:40.841Z,46.26
2022-09-04T11:23:45.930Z,43.86
2022-09-04T11:26:23.606Z,42.79
2022-09-04T11:29:31.070Z,42.62
2022-09-04T11:32:23.690Z,41.53
2022-09-04T11:35:03.170Z,41.74
2022-09-04T11:37:36.451Z,40.89
2022-09-04T11:40:42.462Z,40.20
2022-09-04T11:43:19.247Z,41.86
2022-09-04T11:45:54.437Z,41.59
2022-09-04T11:48:57.296Z,41.48
2022-09-04T11:51:37.244Z,41.92
2022-09-04T11:54:43.251Z,41.84
2022-09-04T11:57:38.655Z,42.83
2022-09-04T12:00:18.297Z,42.02
2022-09-04T12:03:09.134Z,41.37
2022-09-04T12:05:39.727Z,41.32
2022-09-04T12:08:17.941Z,40.66
2022-09-04T12:10:49.713Z,41.62
2022-09-04T12:13:29.463Z,41.24
2022-09-04T12:16:08.177Z,40.90
2022-09-04T12:19:13.575Z,41.01
2022-09-04T12:22:19.679Z,40.06
2022-09-04T12:25:25.180Z,40.87
2022-09-04T12:28:40.399Z,41.20
2022-09-04T12:31:32.534Z,44.71
2022-09-04T12:34:22.216Z,45.32
2022-09-04T12:37:08.209Z,46.34
2022-09-04T12:39:45.023Z,46.53
2022-09-04T12:42:39.066Z,46.95
2022-09-04T12:45:36.669Z,44.26
2022-09-04T12:48:13.886Z,43.30
2022-09-04T12:51:05.956Z,41.76
2022-09-04T12:53:52.553Z,42.59
2022-09-04T12:56:45.321Z,42.00
2022-09-04T12:59:40.453Z,41.38
2022-09-04T13:02:34.072Z,40.95
2022-09-04T13:05:26.510Z,41.26
2022-09-04T13:08:28.416Z,41.11
2022-09-04T13:11:07.795Z,40.34
2022-09-04T13:13:42.229Z,40.55
2022-09-04T13:16:22.280Z,40.97
2022-09-04T13:19:16.400Z,41.56
2022-09-04T13:22:24.395Z,41.59
2022-09-04T13:25:19.181Z,40.96
2022-09-04T13:28:16.907Z,41.23
2022-09-04T13:31:16.224Z,41.12
2022-09-04T13:34:01.831Z,41.47
2022-09-04T13:37:11.117Z,40.87
2022-09-04T13:39:56.164Z,39.99
2022-09-04T13:42:55.663Z,41.18
2022-09-04T13:45:30.140Z,41.08
2022-09-04T13:48:12.713Z,40.87
2022-09-04T13:50:43.818Z,41.43
2022-09-04T13:53:21.548Z,41.06
2022-09-04T13:56:01.260Z,41.07
2022-09-04T13:58:43.242Z,40.30
2022-09-04T14:01:16.981Z,40.60
2022-09-04T14:03:56.486Z,41.42
2022-09-04T14:06:27.001Z,40.84
2022-09-04T14:09:05.623Z,41.86
2022-09-04T14:11:39.385Z,41.05
2022-09-04T14:14:33.235Z,41.28
2022-09-04T14:17:00.933Z,42.40
2022-09-04T14:19:35.771Z,41.46
2022-09-04T14:22:33.596Z,41.11
2022-09-04T14:25:11.720Z,41.65
2022-09-04T14:27:51.703Z,40.73
2022-09-04T14:30:23.479Z,40.13
2022-09-04T14:32:57.688Z,40.49
2022-09-04T14:35:35.858Z,40.82
2022-09-04T14:38:27.855Z,40.77
2022-09-04T14:41:16.278Z,41.72
2022-09-04T14:44:06.842Z,41.62
2022-09-04T14:47:12.148Z,41.83
2022-09-04T14:49:48.339Z,41.87
2022-09-04T14:52:21.675Z,41.72
2022-09-04T14:54:55.051Z,41.47
2022-09-04T14:57:42.254Z,42.14
2022-09-04T15:00:20.848Z,42.81
2022-09-04T15:02:54.286Z,43.52
2022-09-04T15:05:30.595Z,44.40
2022-09-04T15:08:02.476Z,45.17
2022-09-04T15:10:50.909Z,46.45
2022-09-04T15:13:27.295Z,46.51
2022-09-04T15:16:10.028Z,46.15
2022-09-04T15:18:40.785Z,45.83
2022-09-04T15:21:12.352Z,45.97
2022-09-04T15:23:53.028Z,45.60
2022-09-04T15:26:46.705Z,45.35
2022-09-04T15:29:40.698Z,45.20
2022-09-04T15:32:13.816Z,44.75
2022-09-04T15:34:42.083Z,46.37
2022-09-04T15:37:16.364Z,46.07
2022-09-04T15:39:53.947Z,46.28
2022-09-04T15:43:01.522Z,45.45
2022-09-04T15:45:47.202Z,45.80
2022-09-04T15:48:29.779Z,46.91
2022-09-04T15:51:29.102Z,45.47
2022-09-04T15:54:15.473Z,45.95
2022-09-04T15:56:55.076Z,46.08
2022-09-04T15:59:40.840Z,46.23
2022-09-04T16:02:18.689Z,46.13
2022-09-04T16:05:25.243Z,46.29
2022-09-04T16:08:33.133Z,46.05
2022-09-04T16:11:11.395Z,46.54
2022-09-04T16:14:00.553Z,47.42
2022-09-04T16:16:48.610Z,46.85
2022-09-04T16:19:22.831Z,46.66
2022-09-04T16:22:02.857Z,46.41
2022-09-04T16:24:47.939Z,46.42
2022-09-04T16:27:22.928Z,47.10
2022-09-04T16:29:57.807Z,47.26
2022-09-04T16:32:28.408Z,47.21
2022-09-04T16:35:01.653Z,47.33
2022-09-04T16:37:35.118Z,46.70
2022-09-04T16:40:24.806Z,46.34
2022-09-04T16:43:02.153Z,47.69
2022-09-04T16:45:51.073Z,47.80
2022-09-04T16:48:35.349Z,47.72
2022-09-04T16:51:40.165Z,48.09
2022-09-04T16:54:17.031Z,48.34
2022-09-04T16:56:51.111Z,47.97
2022-09-04T16:59:57.481Z,47.62
2022-09-04T17:02:36.041Z,48.13
2022-09-04T17:05:43.067Z,48.73
2022-09-04T17:08:32.849Z,48.99
2022-09-04T17:11:29.253Z,48.61
2022-09-04T17:14:13.985Z,49.10
2022-09-04T17:16:59.454Z,49.95
2022-09-04T17:19:27.530Z,50.77
2022-09-04T17:28:55.847Z,52.38
2022-09-04T17:29:08.640Z,52.16
2022-09-04T17:29:15.598Z,51.92
2022-09-04T17:31:29.065Z,52.39
2022-09-04T17:38:42.736Z,52.85
2022-09-04T17:40:39.971Z,52.90
2022-09-04T17:40:46.714Z,53.08
2022-09-04T17:43:27.830Z,53.29
2022-09-04T17:46:10.900Z,53.48
2022-09-04T17:48:42.455Z,53.58
2022-09-04T17:51:25.671Z,53.70
2022-09-04T17:53:58.422Z,53.71
2022-09-04T17:56:36.959Z,53.74
2022-09-04T17:59:19.843Z,54.23
2022-09-04T18:02:21.684Z,54.03
2022-09-04T18:05:02.766Z,54.67
2022-09-04T18:08:07.259Z,54.54
2022-09-04T18:10:32.625Z,54.84
2022-09-04T18:13:39.461Z,55.83
2022-09-04T18:16:28.652Z,55.42
2022-09-04T18:19:20.968Z,56.29
2022-09-04T18:22:26.600Z,56.46
2022-09-04T18:25:16.202Z,56.79
2022-09-04T18:28:12.321Z,56.87
2022-09-04T18:37:05.871Z,55.32
2022-09-04T18:37:20.116Z,55.57
2022-09-04T18:37:44.186Z,56.29
2022-09-04T18:40:17.531Z,56.35
2022-09-04T18:50:25.100Z,56.97
2022-09-04T18:50:40.371Z,57.30
2022-09-04T18:50:44.114Z,58.10
2022-09-04T18:52:03.483Z,56.86
2022-09-04T18:54:39.770Z,56.69
2022-09-04T18:57:33.542Z,56.23
2022-09-04T19:00:11.455Z,57.28
2022-09-04T19:02:53.091Z,57.87
2022-09-04T19:05:36.450Z,57.85
2022-09-04T19:08:22.100Z,57.97
2022-09-04T19:10:55.067Z,58.07
2022-09-04T19:13:36.292Z,58.25
2022-09-04T19:16:20.217Z,58.54
2022-09-04T19:19:23.532Z,59.30
2022-09-04T19:22:09.368Z,59.55
2022-09-04T19:24:50.244Z,60.54
2022-09-04T19:27:28.509Z,60.55
2022-09-04T19:30:18.354Z,60.63
2022-09-04T19:32:59.929Z,60.64
2022-09-04T19:36:08.203Z,60.36
2022-09-04T19:45:54.699Z,60.56
2022-09-04T19:46:09.597Z,60.83
2022-09-04T19:46:11.719Z,61.21
2022-09-04T19:47:51.399Z,60.93
2022-09-04T19:53:22.726Z,60.46
2022-09-04T19:53:50.219Z,60.57
2022-09-04T19:56:27.032Z,60.74
2022-09-04T19:59:05.468Z,61.22
2022-09-04T20:01:53.455Z,61.56
2022-09-04T20:04:47.872Z,62.02
2022-09-04T20:07:46.359Z,62.30
2022-09-04T20:10:37.862Z,62.16
2022-09-04T20:13:23.905Z,62.23
2022-09-04T20:16:16.297Z,62.80
2022-09-04T20:18:53.658Z,62.37
2022-09-04T20:21:27.370Z,62.36
2022-09-04T20:24:01.805Z,63.55
2022-09-04T20:26:34.519Z,63.47
2022-09-04T20:29:23.713Z,63.50
2022-09-04T20:32:00.406Z,63.86
2022-09-04T20:34:39.959Z,63.68
2022-09-04T20:37:28.430Z,63.83
2022-09-04T20:40:04.610Z,63.89
2022-09-04T20:42:56.571Z,64.01
2022-09-04T20:48:43.308Z,63.67
2022-09-04T20:52:46.108Z,63.88
2022-09-04T20:52:55.885Z,63.74
2022-09-04T20:54:50.954Z,64.15
2022-09-04T21:03:07.378Z,63.13
2022-09-04T21:03:21.973Z,64.09
2022-09-04T21:03:52.203Z,64.92
2022-09-04T21:06:38.527Z,63.86
2022-09-04T21:09:18.751Z,63.67
2022-09-04T21:11:51.770Z,64.29
2022-09-04T21:14:44.851Z,63.29
2022-09-04T21:17:43.502Z,64.00
2022-09-04T21:20:34.925Z,63.95
2022-09-04T21:23:30.169Z,63.51
2022-09-04T21:26:06.589Z,64.84
2022-09-04T21:29:11.240Z,65.74
2022-09-04T21:31:48.475Z,66.23
2022-09-04T21:35:04.713Z,66.82
2022-09-04T21:37:53.860Z,68.14
2022-09-04T21:40:51.675Z,69.43
2022-09-04T21:43:35.704Z,70.76
2022-09-04T21:46:20.965Z,71.22
2022-09-04T21:49:26.778Z,71.39
2022-09-04T21:52:03.697Z,71.68
2022-09-04T21:57:13.550Z,71.95
2022-09-04T22:02:32.145Z,71.98
2022-09-04T22:02:44.811Z,72.59
2022-09-04T22:04:29.104Z,72.62
2022-09-04T22:12:01.573Z,74.13
2022-09-04T22:13:27.261Z,73.81
2022-09-04T22:13:40.327Z,74.79
2022-09-04T22:16:30.088Z,75.73
2022-09-04T22:19:16.231Z,76.87
2022-09-04T22:22:05.680Z,77.39
2022-09-04T22:25:05.899Z,76.96
2022-09-04T22:28:08.870Z,77.21
2022-09-04T22:30:46.630Z,77.38
2022-09-04T22:34:15.283Z,76.12
2022-09-04T22:37:09.837Z,76.25
2022-09-04T22:39:40.640Z,75.92
2022-09-04T22:42:30.587Z,77.27
2022-09-04T22:45:35.511Z,76.45
2022-09-04T22:48:24.610Z,76.65
2022-09-04T22:51:19.707Z,76.01
2022-09-04T22:54:23.519Z,75.29
2022-09-04T22:57:12.497Z,75.33
2022-09-04T23:00:00.740Z,74.82
2022-09-04T23:03:16.409Z,74.99
2022-09-04T23:08:21.639Z,74.76
2022-09-04T23:13:52.087Z,74.80
2022-09-04T23:14:01.801Z,74.21
2022-09-04T23:16:04.194Z,74.25
2022-09-04T23:19:55.330Z,74.36
2022-09-04T23:26:38.229Z,74.25
2022-09-04T23:26:49.802Z,74.27
2022-09-04T23:28:27.225Z,74.73
2022-09-04T23:31:19.959Z,74.60
2022-09-04T23:34:14.830Z,74.61
2022-09-04T23:36:42.080Z,74.78
2022-09-04T23:39:42.963Z,75.70
2022-09-04T23:42:25.678Z,75.31
2022-09-04T23:45:05.401Z,75.03
2022-09-04T23:47:51.650Z,74.84
2022-09-04T23:50:27.037Z,75.15
2022-09-04T23:53:19.077Z,74.72
2022-09-04T23:56:12.330Z,75.11
2022-09-04T23:59:26.542Z,74.97
